Time;durP1;ratioP1;P1;durP2;ratioP2;P2;SDS_P1;SDS_P2;PMS_P1;PMS_P2;Temp;Humidity;BMP_temperature;BMP_pressure;BME280_temperature;BME280_humidity;BME280_pressure;Samples;Min_cycle;Max_cycle;Signal;HPM_P1;HPM_P2
2022/05/23 00:00:51;;;;;;;3.33;1.40;;;;;;;-149.78;100.00;50131.16;5115540;28;20027;-67
2022/05/23 00:03:18;;;;;;;2.42;1.33;;;;;;;-149.78;100.00;50162.44;5132974;28;20035;-67
2022/05/23 00:05:44;;;;;;;3.72;1.60;;;;;;;-149.78;100.00;50142.88;5133734;28;20075;-67
2022/05/23 00:08:10;;;;;;;3.05;1.52;;;;;;;-149.78;100.00;50162.44;5115630;28;20035;-67
2022/05/23 00:10:36;;;;;;;2.90;1.60;;;;;;;-149.78;100.00;50144.84;5115825;28;20027;-67
2022/05/23 00:13:01;;;;;;;9.13;1.88;;;;;;;-149.78;100.00;50152.66;5134120;28;20035;-67
2022/05/23 00:15:27;;;;;;;3.63;1.42;;;;;;;-149.78;100.00;50127.25;5115716;28;20027;-68
2022/05/23 00:17:54;;;;;;;1.92;1.50;;;;;;;-149.78;100.00;50162.44;5115497;28;20053;-67
2022/05/23 00:20:23;;;;;;;4.80;1.50;;;;;;;-149.78;100.00;50135.06;5135334;27;20423;-68
2022/05/23 00:22:49;;;;;;;2.65;1.55;;;;;;;-149.78;100.00;50172.22;5138143;27;20035;-68
2022/05/23 00:25:15;;;;;;;2.85;1.40;;;;;;;-149.78;100.00;50115.50;5119774;27;20079;-68
2022/05/23 00:27:42;;;;;;;5.20;1.50;;;;;;;-149.78;100.00;50142.88;5138218;27;20031;-68
2022/05/23 00:30:22;;;;;;;2.22;1.50;;;;;;;-149.78;100.00;50142.88;5138012;27;20039;-68
2022/05/23 00:35:32;;;;;;;2.55;1.60;;;;;;;-149.78;100.00;50127.25;5137774;27;20035;-68
2022/05/23 00:37:58;;;;;;;1.98;1.60;;;;;;;-149.78;100.00;50158.53;5138043;27;20042;-68
2022/05/23 00:40:30;;;;;;;3.90;1.48;;;;;;;-149.78;100.00;50160.50;5137898;27;20475;-68
2022/05/23 00:43:19;;;;;;;9.95;1.80;;;;;;;-149.78;100.00;50135.06;5137725;27;20034;-68
2022/05/23 00:45:47;;;;;;;1.88;1.38;;;;;;;-149.78;100.00;50166.34;5137767;27;20408;-68
2022/05/23 00:48:15;;;;;;;3.92;1.40;;;;;;;-149.78;100.00;50125.28;5137576;27;20034;-68
2022/05/23 00:50:45;;;;;;;2.53;1.48;;;;;;;-149.78;100.00;50150.72;5119388;27;20479;-68
2022/05/23 00:53:13;;;;;;;1.90;1.40;;;;;;;-149.78;100.00;50152.66;5137531;27;20469;-68
2022/05/23 00:55:45;;;;;;;3.53;1.52;;;;;;;-149.78;100.00;50182.00;5137518;27;20027;-68
2022/05/23 00:58:17;;;;;;;4.60;1.45;;;;;;;-149.78;100.00;50137.03;5102043;27;20081;-68
2022/05/23 01:00:43;;;;;;;4.05;1.65;;;;;;;-149.78;100.00;50160.50;5137450;27;20094;-68
2022/05/23 01:03:12;;;;;;;3.95;1.50;;;;;;;-149.78;100.00;50182.00;5129176;27;20130;-68
2022/05/23 01:05:39;;;;;;;2.08;1.40;;;;;;;-149.78;100.00;50170.25;5133594;27;20058;-68
2022/05/23 01:08:05;;;;;;;3.15;1.55;;;;;;;-149.78;100.00;50174.19;5118810;27;20042;-68
2022/05/23 01:10:34;;;;;;;2.58;1.50;;;;;;;-149.78;100.00;50150.72;5137353;27;20067;-68
2022/05/23 01:13:00;;;;;;;5.38;1.50;;;;;;;-149.78;100.00;50180.03;5114736;27;20546;-68
2022/05/23 01:15:29;;;;;;;1.65;1.45;;;;;;;-149.78;100.00;50201.56;5101374;27;20106;-68
2022/05/23 01:17:55;;;;;;;2.60;1.55;;;;;;;-149.78;100.00;50197.66;5101640;27;20031;-68
2022/05/23 01:20:23;;;;;;;4.20;1.65;;;;;;;-149.78;100.00;50180.03;5114289;27;20439;-68
2022/05/23 01:23:07;;;;;;;2.10;1.45;;;;;;;-149.78;100.00;50185.91;5136762;27;20037;-68
2022/05/23 01:25:40;;;;;;;1.63;1.35;;;;;;;-149.78;100.00;50182.00;5118461;27;20042;-68
2022/05/23 01:28:05;;;;;;;;;;;;;;;-149.78;100.00;50133.09;5137313;27;20450;-68
2022/05/23 01:30:34;;;;;;;3.13;2.08;;;;;;;-149.78;100.00;50187.88;5136684;27;19911;-68
2022/05/23 01:33:01;;;;;;;3.28;1.85;;;;;;;-149.78;100.00;50154.63;5117524;27;20119;-68
2022/05/23 01:35:27;;;;;;;4.85;1.88;;;;;;;-149.78;100.00;50160.50;5118543;27;20031;-68
2022/05/23 01:37:53;;;;;;;3.00;1.60;;;;;;;-149.78;100.00;50182.00;5136706;27;20029;-68
2022/05/23 01:40:19;;;;;;;2.25;1.75;;;;;;;-149.78;100.00;50154.63;5101326;27;20075;-68
2022/05/23 01:42:45;;;;;;;4.20;1.92;;;;;;;-149.78;100.00;50127.25;5118510;27;20058;-68
2022/05/23 01:45:15;;;;;;;2.78;1.70;;;;;;;-149.78;100.00;50150.72;5136666;27;20028;-68
2022/05/23 01:47:41;;;;;;;4.95;2.00;;;;;;;-149.78;100.00;50180.03;5118369;27;20027;-68
2022/05/23 01:50:07;;;;;;;3.20;1.80;;;;;;;-149.78;100.00;50154.63;5136579;27;20041;-68
2022/05/23 01:52:33;;;;;;;2.85;1.60;;;;;;;-149.78;100.00;50180.03;5136421;27;20035;-68
2022/05/23 01:54:59;;;;;;;2.83;1.85;;;;;;;-149.78;100.00;50142.88;5136295;27;20430;-68
2022/05/23 01:57:24;;;;;;;3.03;1.80;;;;;;;-149.78;100.00;50119.41;5117719;27;20039;-68
2022/05/23 02:02:34;;;;;;;4.38;1.58;;;;;;;-149.78;100.00;50182.00;5136192;27;20443;-68
2022/05/23 02:05:00;;;;;;;4.28;1.52;;;;;;;-149.78;100.00;50183.97;5136277;27;20027;-68
2022/05/23 02:07:25;;;;;;;4.10;1.70;;;;;;;-149.78;100.00;50131.16;5117805;27;20455;-68
2022/05/23 02:09:51;;;;;;;8.50;1.80;;;;;;;-149.78;100.00;50168.31;5136078;27;20042;-68
2022/05/23 02:12:18;;;;;;;3.58;1.45;;;;;;;-149.78;100.00;50199.59;5117576;27;20092;-68
2022/05/23 02:14:45;;;;;;;4.07;1.50;;;;;;;-149.78;100.00;50178.09;5136012;27;20416;-68
2022/05/23 02:17:12;;;;;;;5.45;1.73;;;;;;;-149.78;100.00;50178.09;5135994;27;20087;-68
2022/05/23 02:19:38;;;;;;;3.40;2.22;;;;;;;-149.78;100.00;50189.81;5135890;27;20538;-68
2022/05/23 02:22:05;;;;;;;2.88;1.30;;;;;;;-149.78;100.00;50217.19;5117433;27;20031;-68
2022/05/23 02:24:30;;;;;;;3.80;1.70;;;;;;;-149.78;100.00;50183.97;5135847;27;20035;-68
2022/05/23 02:26:56;;;;;;;2.60;1.30;;;;;;;-149.78;100.00;50142.88;5135712;27;20551;-68
2022/05/23 02:29:22;;;;;;;6.13;1.88;;;;;;;-149.78;100.00;50146.81;5117262;27;20367;-68
2022/05/23 02:31:50;;;;;;;4.38;1.60;;;;;;;-149.78;100.00;50205.47;5135794;27;20042;-68
2022/05/23 02:34:18;;;;;;;4.78;1.70;;;;;;;-149.78;100.00;50178.09;5117782;27;20039;-68
2022/05/23 02:36:45;;;;;;;3.22;1.38;;;;;;;-149.78;100.00;50187.88;5117330;27;20482;-68
2022/05/23 02:39:12;;;;;;;3.83;1.90;;;;;;;-149.78;100.00;50162.44;5135575;27;20043;-68
2022/05/23 02:41:39;;;;;;;3.33;1.42;;;;;;;-149.78;100.00;50168.31;5117359;27;20027;-68
2022/05/23 02:44:06;;;;;;;2.83;1.42;;;;;;;-149.78;100.00;50170.25;5135273;27;20042;-68
2022/05/23 02:46:31;;;;;;;3.33;1.50;;;;;;;-149.78;100.00;50189.81;5135585;27;20335;-68
2022/05/23 02:48:59;;;;;;;3.15;1.65;;;;;;;-149.78;100.00;50170.25;5135378;27;20062;-68
2022/05/23 02:51:25;;;;;;;3.75;1.40;;;;;;;-149.78;100.00;50166.34;5135338;27;20183;-68
2022/05/23 02:53:51;;;;;;;4.00;1.70;;;;;;;-149.78;100.00;50182.00;5100104;27;20035;-68
2022/05/23 02:56:17;;;;;;;6.78;1.75;;;;;;;-149.78;100.00;50158.53;5135105;27;20527;-68
2022/05/23 02:58:43;;;;;;;4.40;1.70;;;;;;;-149.78;100.00;50172.22;5135021;27;20046;-68
2022/05/23 03:01:10;;;;;;;7.25;1.55;;;;;;;-149.78;100.00;50197.66;5116741;27;20034;-68
2022/05/23 03:03:37;;;;;;;4.93;1.60;;;;;;;-149.78;100.00;50183.97;5116541;27;20031;-68
2022/05/23 03:06:03;;;;;;;3.83;1.65;;;;;;;-149.78;100.00;50199.59;5116978;27;20373;-68
2022/05/23 03:08:29;;;;;;;8.50;1.98;;;;;;;-149.78;100.00;50197.66;5116832;27;20035;-68
2022/05/23 03:10:59;;;;;;;3.00;1.40;;;;;;;-149.78;100.00;50197.66;5116707;27;20486;-68
2022/05/23 03:13:25;;;;;;;6.10;1.65;;;;;;;-149.78;100.00;50201.56;5116495;27;20037;-68
2022/05/23 03:15:51;;;;;;;5.05;1.52;;;;;;;-149.78;100.00;50182.00;5116635;27;20035;-68
2022/05/23 03:18:16;;;;;;;4.82;1.55;;;;;;;-149.78;100.00;50215.25;5112260;27;20034;-68
2022/05/23 03:20:42;;;;;;;4.53;1.70;;;;;;;-149.78;100.00;50223.06;5113823;28;20088;-68
2022/05/23 03:28:40;;;;;;;4.65;1.73;;;;;;;-149.78;100.00;50185.91;5134238;27;20035;-68
2022/05/23 03:31:06;;;;;;;5.25;1.73;;;;;;;-149.78;100.00;50185.91;5116123;27;20102;-68
2022/05/23 03:33:32;;;;;;;3.83;1.52;;;;;;;-149.78;100.00;50195.69;5115970;27;20046;-68
2022/05/23 03:35:58;;;;;;;6.78;2.05;;;;;;;-149.78;100.00;50178.09;5134350;27;20039;-68
2022/05/23 03:38:24;;;;;;;5.28;1.88;;;;;;;-149.78;100.00;50189.81;5129793;27;20027;-68
2022/05/23 03:40:50;;;;;;;4.53;1.77;;;;;;;-149.78;100.00;50211.34;5114757;27;20129;-68
2022/05/23 03:43:16;;;;;;;3.55;1.50;;;;;;;-149.78;100.00;50189.81;5133990;27;20394;-68
2022/05/23 03:45:41;;;;;;;3.20;1.70;;;;;;;-149.78;100.00;50197.66;5134210;27;20084;-68
2022/05/23 03:48:08;;;;;;;8.13;1.90;;;;;;;-149.78;100.00;50189.81;5133966;27;20027;-68
2022/05/23 03:50:35;;;;;;;5.20;1.67;;;;;;;-149.78;100.00;50197.66;5133974;27;20033;-68
2022/05/23 03:53:02;;;;;;;5.55;1.63;;;;;;;-149.78;100.00;50182.00;5134169;27;20439;-68
2022/05/23 03:55:29;;;;;;;2.75;1.30;;;;;;;-149.78;100.00;50234.81;5133554;27;20023;-68
2022/05/23 03:57:55;;;;;;;5.53;2.03;;;;;;;-149.78;100.00;50197.66;5115582;27;20059;-68
2022/05/23 04:00:22;;;;;;;7.05;1.65;;;;;;;-149.78;100.00;50170.25;5115926;28;20027;-68
2022/05/23 04:02:49;;;;;;;4.07;1.77;;;;;;;-149.78;100.00;50203.50;5134129;28;20043;-68
2022/05/23 04:05:16;;;;;;;4.05;1.77;;;;;;;-149.78;100.00;50189.81;5134105;28;20090;-68
2022/05/23 04:07:42;;;;;;;4.28;1.60;;;;;;;-149.78;100.00;50174.19;5115987;28;20065;-68
2022/05/23 04:10:12;;;;;;;4.70;1.63;;;;;;;-149.78;100.00;50201.56;5133672;28;20091;-68
2022/05/23 04:12:41;;;;;;;3.28;1.40;;;;;;;-149.78;100.00;50205.47;5115740;28;20030;-68
2022/05/23 04:15:07;;;;;;;4.72;1.60;;;;;;;-149.78;100.00;50199.59;5114694;28;20374;-68
2022/05/23 04:17:33;;;;;;;5.53;2.00;;;;;;;-149.78;100.00;50205.47;5097747;28;20432;-68
2022/05/23 04:19:59;;;;;;;5.10;1.83;;;;;;;-149.78;100.00;50189.81;5114719;28;20031;-68
2022/05/23 04:22:24;;;;;;;3.80;1.70;;;;;;;-149.78;100.00;50195.69;5133021;28;20034;-68
2022/05/23 04:24:51;;;;;;;4.30;1.70;;;;;;;-149.78;100.00;50182.00;5133671;28;20525;-68
2022/05/23 04:27:18;;;;;;;5.93;2.13;;;;;;;-149.78;100.00;50185.91;5115330;28;20491;-68
2022/05/23 04:29:44;;;;;;;9.30;1.70;;;;;;;-149.78;100.00;50182.00;5133608;28;20076;-68
2022/05/23 04:37:38;;;;;;;4.22;1.63;;;;;;;-149.78;100.00;50197.66;5133836;28;20038;-68
2022/05/23 04:40:04;;;;;;;7.47;1.80;;;;;;;-149.78;100.00;50205.47;5115383;28;20378;-68
2022/05/23 04:42:31;;;;;;;3.10;1.60;;;;;;;-149.78;100.00;50178.09;5133813;28;20039;-68
2022/05/23 04:44:57;;;;;;;4.65;1.70;;;;;;;-149.78;100.00;50197.66;5115564;28;20477;-68
2022/05/23 04:50:07;;;;;;;4.88;1.65;;;;;;;-149.78;100.00;50209.38;5133690;28;20042;-67
2022/05/23 04:52:33;;;;;;;6.30;1.60;;;;;;;-149.78;100.00;50185.91;5133779;28;20050;-68
2022/05/23 04:54:59;;;;;;;2.83;1.70;;;;;;;-149.78;100.00;50162.44;5133893;28;20035;-68
2022/05/23 04:57:25;;;;;;;5.00;1.67;;;;;;;-149.78;100.00;50185.91;5133237;28;20039;-68
2022/05/23 04:59:50;;;;;;;5.25;1.95;;;;;;;-149.78;100.00;50225.03;5133582;28;20113;-68
2022/05/23 05:02:16;;;;;;;9.75;1.80;;;;;;;-149.78;100.00;50189.81;5133510;28;20054;-67
2022/05/23 05:04:41;;;;;;;6.07;1.50;;;;;;;-149.78;100.00;50185.91;5132698;28;20034;-68
2022/05/23 05:07:07;;;;;;;9.00;2.00;;;;;;;-149.78;100.00;50205.47;5094673;28;20028;-68
2022/05/23 05:09:33;;;;;;;6.38;2.17;;;;;;;-149.78;100.00;50189.81;5107290;27;20034;-67
2022/05/23 05:12:00;;;;;;;5.47;1.80;;;;;;;-149.78;100.00;50223.06;5127246;27;20023;-68
2022/05/23 05:14:27;;;;;;;6.80;1.85;;;;;;;-149.78;100.00;50209.38;5122262;27;20394;-67
2022/05/23 05:16:53;;;;;;;7.40;1.90;;;;;;;-149.78;100.00;50221.13;5123937;27;20409;-68
2022/05/23 05:19:20;;;;;;;5.10;2.13;;;;;;;-149.78;100.00;50217.19;5103061;27;20118;-68
2022/05/23 05:21:46;;;;;;;11.68;2.03;;;;;;;-149.78;100.00;50248.50;5119748;27;20032;-68
2022/05/23 05:24:11;;;;;;;7.43;1.80;;;;;;;-149.78;100.00;50205.47;5125701;27;20030;-68
2022/05/23 05:26:37;;;;;;;8.45;1.90;;;;;;;-149.78;100.00;50205.47;5086699;27;20024;-67
2022/05/23 05:29:03;;;;;;;8.10;1.83;;;;;;;-149.78;100.00;50217.19;5130126;27;20445;-68
2022/05/23 05:31:56;;;;;;;5.13;1.70;;;;;;;-149.78;100.00;50205.47;5109238;27;20416;-68
2022/05/23 05:34:36;;;;;;;;;;;;;;;-149.78;100.00;50221.13;5129911;27;20535;-68
2022/05/23 05:37:06;;;;;;;8.93;1.75;;;;;;;-149.78;100.00;50197.66;5111072;27;19923;-68
2022/05/23 05:39:34;;;;;;;7.22;2.08;;;;;;;-149.78;100.00;50183.97;5130646;27;20490;-68
2022/05/23 05:42:06;;;;;;;4.63;1.80;;;;;;;-149.78;100.00;50182.00;5101527;27;20035;-68
2022/05/23 05:44:34;;;;;;;6.07;2.42;;;;;;;-149.78;100.00;50221.13;5127507;27;20454;-67
2022/05/23 05:47:06;;;;;;;6.70;1.98;;;;;;;-149.78;100.00;50238.72;5131434;27;20026;-67
2022/05/23 05:49:37;;;;;;;5.43;2.17;;;;;;;-149.78;100.00;50238.72;5127305;27;20517;-68
2022/05/23 05:52:05;;;;;;;3.83;2.10;;;;;;;-149.78;100.00;50201.56;5129375;27;20470;-68
2022/05/23 05:54:32;;;;;;;5.53;1.65;;;;;;;-149.78;100.00;50189.81;5104824;27;21148;-68
2022/05/23 05:57:00;;;;;;;6.32;1.75;;;;;;;-149.78;100.00;50183.97;5097441;28;20544;-67
2022/05/23 05:59:26;;;;;;;5.43;1.85;;;;;;;-149.78;100.00;50166.34;5123248;27;20048;-69
2022/05/23 06:01:52;;;;;;;7.20;2.10;;;;;;;-149.78;100.00;50172.22;5120300;27;20066;-69
2022/05/23 06:04:17;;;;;;;6.70;1.67;;;;;;;-149.78;100.00;50182.00;5133627;27;20118;-68
2022/05/23 06:12:13;;;;;;;7.10;1.80;;;;;;;-149.78;100.00;50189.81;5129944;27;20046;-69
2022/05/23 06:14:38;;;;;;;6.82;1.83;;;;;;;-149.78;100.00;50158.53;5136068;27;20035;-68
2022/05/23 06:17:08;;;;;;;8.32;1.85;;;;;;;-149.78;100.00;50205.47;5129338;27;20031;-69
2022/05/23 06:19:45;;;;;;;9.50;2.70;;;;;;;-149.78;100.00;50135.06;5126318;27;20047;-70
2022/05/23 06:22:13;;;;;;;5.22;1.60;;;;;;;-149.78;100.00;50195.69;5119162;27;20555;-71
2022/05/23 06:24:40;;;;;;;7.07;1.85;;;;;;;-149.78;100.00;50160.50;5118804;27;20486;-69
2022/05/23 06:27:08;;;;;;;4.10;1.88;;;;;;;-149.78;100.00;50182.00;5120402;27;20756;-69
2022/05/23 06:29:35;;;;;;;5.18;1.80;;;;;;;-149.78;100.00;50162.44;5123595;27;20027;-67
2022/05/23 06:32:02;;;;;;;6.97;1.60;;;;;;;-149.78;100.00;50131.16;5110050;28;20375;-70
2022/05/23 06:34:29;;;;;;;8.32;2.00;;;;;;;-149.78;100.00;50162.44;5114508;27;20032;-70
2022/05/23 06:36:55;;;;;;;6.75;2.22;;;;;;;-149.78;100.00;50166.34;5114285;28;20071;-70
2022/05/23 06:39:21;;;;;;;8.38;1.73;;;;;;;-149.78;100.00;50166.34;5117513;27;20031;-70
2022/05/23 06:41:48;;;;;;;5.90;1.90;;;;;;;-149.78;100.00;50158.53;5106024;27;20027;-70
2022/05/23 06:44:13;;;;;;;6.75;1.70;;;;;;;-149.78;100.00;50142.88;5081323;27;20059;-70
2022/05/23 06:46:40;;;;;;;5.78;1.98;;;;;;;-149.78;100.00;50162.44;5085208;28;20031;-71
2022/05/23 06:49:06;;;;;;;6.60;2.08;;;;;;;-149.78;100.00;50180.03;5100637;27;20035;-70
2022/05/23 06:51:36;;;;;;;3.53;1.60;;;;;;;-149.78;100.00;50154.63;5128621;27;20023;-69
2022/05/23 06:54:02;;;;;;;8.52;1.90;;;;;;;-149.78;100.00;50162.44;5127559;27;20026;-70
2022/05/23 06:56:28;;;;;;;5.80;2.03;;;;;;;-149.78;100.00;50146.81;5121093;27;20140;-70
2022/05/23 06:58:55;;;;;;;7.25;1.83;;;;;;;-149.78;100.00;50144.84;5107721;27;20050;-70
2022/05/23 07:01:21;;;;;;;7.30;1.98;;;;;;;-149.78;100.00;50144.84;5128813;27;20066;-70
2022/05/23 07:03:47;;;;;;;6.32;1.98;;;;;;;-149.78;100.00;50174.19;5135129;27;20027;-70
2022/05/23 07:14:26;;;;;;;6.38;2.55;;;;;;;-149.78;100.00;50166.34;5109040;28;20081;-72
2022/05/23 07:16:54;;;;;;;10.25;2.10;;;;;;;-149.78;100.00;50115.50;5100126;28;20039;-72
2022/05/23 07:19:20;;;;;;;11.30;2.53;;;;;;;-149.78;100.00;50150.72;5115963;27;20031;-71
2022/05/23 07:21:46;;;;;;;5.25;1.80;;;;;;;-149.78;100.00;50135.06;5120564;27;20052;-71
2022/05/23 07:24:11;;;;;;;6.15;2.10;;;;;;;-149.78;100.00;50123.34;5116654;27;20039;-71
2022/05/23 07:26:37;;;;;;;6.43;2.10;;;;;;;-149.78;100.00;50119.41;5103027;28;20094;-71
2022/05/23 07:29:04;;;;;;;7.63;2.35;;;;;;;-149.78;100.00;50084.22;5107936;27;20027;-71
2022/05/23 07:31:30;;;;;;;10.68;3.65;;;;;;;-149.78;100.00;50109.66;5104213;27;20023;-71
2022/05/23 07:33:55;;;;;;;10.73;5.72;;;;;;;-149.78;100.00;50058.78;5099012;28;20360;-70
2022/05/23 07:36:21;;;;;;;9.88;5.10;;;;;;;-149.78;100.00;50090.09;5095660;28;20416;-70
2022/05/23 07:38:47;;;;;;;8.52;3.90;;;;;;;-149.78;100.00;50095.94;5078905;28;20039;-71
2022/05/23 07:41:13;;;;;;;9.80;4.30;;;;;;;-149.78;100.00;50127.25;5095722;28;20058;-71
2022/05/23 07:43:41;;;;;;;10.82;5.72;;;;;;;-149.78;100.00;50095.94;5113805;28;20051;-71
2022/05/23 07:46:10;;;;;;;13.20;6.70;;;;;;;-149.78;100.00;50099.88;5112981;28;20062;-71
2022/05/23 07:48:45;;;;;;;9.85;5.25;;;;;;;-149.78;100.00;50127.25;5095699;28;20028;-71
2022/05/23 07:51:12;;;;;;;10.15;6.10;;;;;;;-149.78;100.00;50105.72;5095470;28;20027;-71
2022/05/23 08:01:52;;;;;;;11.30;7.32;;;;;;;-149.78;100.00;50107.69;5134156;28;20039;-70
2022/05/23 08:04:19;;;;;;;9.80;4.80;;;;;;;-149.78;100.00;50099.88;5133756;28;20035;-71
2022/05/23 08:06:47;;;;;;;10.77;3.40;;;;;;;-149.78;97.26;50056.84;5105451;28;20026;-71
2022/05/23 08:09:16;;;;;;;6.93;3.00;;;;;;;-149.78;100.00;50097.91;5086469;28;20553;-71
2022/05/23 08:11:44;;;;;;;7.80;3.08;;;;;;;-149.78;100.00;50060.75;5120688;28;20050;-70
2022/05/23 08:14:11;;;;;;;11.32;3.10;;;;;;;-149.78;100.00;50064.66;5102679;28;20409;-71
2022/05/23 08:16:37;;;;;;;8.57;2.92;;;;;;;-149.78;100.00;50084.22;5121040;28;20028;-71
2022/05/23 08:19:06;;;;;;;5.93;2.35;;;;;;;-149.78;100.00;50103.78;5118272;28;20086;-71
2022/05/23 08:21:34;;;;;;;7.43;3.33;;;;;;;-149.78;94.22;50064.66;5119946;28;20027;-70
2022/05/23 08:24:00;;;;;;;5.72;3.40;;;;;;;-149.78;85.50;50049.03;5102024;28;20088;-69
2022/05/23 08:26:27;;;;;;;9.30;3.20;;;;;;;-149.78;86.15;50064.66;5124249;28;20040;-70
2022/05/23 08:28:53;;;;;;;5.35;2.30;;;;;;;-149.78;81.17;50045.09;5123846;28;20035;-69
2022/05/23 08:31:19;;;;;;;5.22;2.40;;;;;;;-149.78;85.75;50060.75;5110174;28;20118;-69
2022/05/23 08:33:45;;;;;;;5.30;2.53;;;;;;;-149.78;80.09;50060.75;5131880;28;20031;-69
2022/05/23 08:36:11;;;;;;;5.53;2.50;;;;;;;-149.78;89.59;50052.94;5133561;28;20067;-69
2022/05/23 08:38:37;;;;;;;5.70;2.42;;;;;;;-149.78;85.75;50039.25;5133747;28;20046;-69
2022/05/23 08:41:12;;;;;;;7.22;2.60;;;;;;;-149.78;86.19;50054.88;5102189;28;20130;-69
2022/05/23 08:44:10;;;;;;;9.60;2.92;;;;;;;-149.78;87.38;50021.63;5117280;28;20040;-69
2022/05/23 08:46:48;;;;;;;5.18;2.78;;;;;;;-149.78;75.58;50037.28;5089662;28;20078;-69
2022/05/23 08:49:59;;;;;;;4.80;2.30;;;;;;;-149.78;73.73;50000.13;5116865;28;20031;-69
2022/05/23 08:52:39;;;;;;;7.13;2.67;;;;;;;-149.78;69.59;49996.22;5117124;28;20156;-69
2022/05/23 08:55:05;;;;;;;6.18;2.95;;;;;;;-149.78;69.29;49986.44;5117170;28;20059;-69
2022/05/23 08:57:50;;;;;;;4.75;2.75;;;;;;;-149.78;70.81;50045.09;5116736;28;20058;-69
2022/05/23 09:00:23;;;;;;;5.57;2.67;;;;;;;-149.78;71.37;50013.81;5116906;28;20046;-69
2022/05/23 09:02:59;;;;;;;8.65;3.00;;;;;;;-149.78;76.27;50082.25;5117030;28;20028;-69
2022/05/23 09:05:53;;;;;;;8.30;3.50;;;;;;;-149.78;88.12;50072.50;5098852;28;20082;-69
2022/05/23 09:08:22;;;;;;;5.90;3.63;;;;;;;-149.78;86.82;50095.94;5098562;28;20031;-69
2022/05/23 09:10:58;;;;;;;5.50;3.00;;;;;;;-149.78;85.18;50084.22;5116732;28;20027;-68
2022/05/23 09:13:27;;;;;;;6.57;3.20;;;;;;;-149.78;91.83;50076.41;5135636;27;20362;-68
2022/05/23 09:15:59;;;;;;;10.02;3.20;;;;;;;-149.78;94.36;50113.56;5137275;27;20512;-69
2022/05/23 09:18:33;;;;;;;6.60;3.13;;;;;;;-149.78;97.30;50084.22;5137230;27;20035;-69
2022/05/23 09:21:04;;;;;;;8.68;3.47;;;;;;;-149.78;100.00;50099.88;5118801;27;20031;-69
2022/05/23 09:23:40;;;;;;;7.07;3.15;;;;;;;-149.78;92.09;50072.50;5118456;27;20037;-69
2022/05/23 09:26:14;;;;;;;5.60;3.05;;;;;;;-149.78;98.54;50086.19;5118696;27;20049;-68
2022/05/23 09:28:40;;;;;;;10.55;3.83;;;;;;;-149.78;90.26;50060.75;5136902;27;20057;-69
2022/05/23 09:31:27;;;;;;;7.00;2.75;;;;;;;-149.78;90.29;50052.94;5136221;27;20031;-69
2022/05/23 09:33:56;;;;;;;4.68;2.60;;;;;;;-149.78;95.88;50076.41;5121917;27;20421;-69
2022/05/23 09:36:25;;;;;;;6.45;2.60;;;;;;;-149.78;84.19;50037.28;5112428;27;20024;-69
2022/05/23 09:38:51;;;;;;;7.20;3.10;;;;;;;-149.78;84.14;50045.09;5118986;27;20039;-69
2022/05/23 09:47:44;;;;;;;6.05;2.28;;;;;;;-149.78;81.94;50086.19;5105598;27;20382;-69
2022/05/23 09:49:46;;;;;;;3.72;2.92;;;;;;;-149.78;93.31;50080.31;5132795;27;20032;-69
2022/05/23 09:52:32;;;;;;;5.57;2.72;;;;;;;-149.78;92.95;50099.88;5115710;28;20111;-69
2022/05/23 09:55:00;;;;;;;6.30;2.58;;;;;;;-149.78;86.80;50084.22;5115988;28;20035;-69
2022/05/23 09:57:35;;;;;;;4.72;2.53;;;;;;;-149.78;95.35;50076.41;5115544;28;20024;-69
2022/05/23 10:00:26;;;;;;;4.05;2.10;;;;;;;-149.78;86.47;50109.66;5134807;27;20114;-69
2022/05/23 10:02:57;;;;;;;3.88;2.30;;;;;;;-149.78;88.09;50080.31;5130333;27;20020;-69
2022/05/23 10:05:27;;;;;;;4.63;2.08;;;;;;;-149.78;82.58;50056.84;5115709;28;20036;-69
2022/05/23 10:08:01;;;;;;;8.82;2.28;;;;;;;-149.78;76.43;50099.88;5120426;27;20506;-69
2022/05/23 10:10:32;;;;;;;1.95;1.65;;;;;;;-149.78;71.79;50076.41;5115453;28;20027;-69
2022/05/23 10:13:16;;;;;;;4.53;1.70;;;;;;;-149.78;65.32;50017.72;5127191;27;20100;-69
2022/05/23 10:15:45;;;;;;;4.05;1.90;;;;;;;-149.78;59.83;50056.84;5122947;27;20020;-69
2022/05/23 10:18:29;;;;;;;5.72;2.00;;;;;;;-149.78;60.98;50017.72;5100718;28;20371;-69
2022/05/23 10:20:56;;;;;;;4.70;2.10;;;;;;;-149.78;62.29;50002.09;5120093;27;20039;-69
2022/05/23 10:23:30;;;;;;;4.88;1.83;;;;;;;-149.78;63.36;50017.72;5116613;27;20047;-69
2022/05/23 10:26:06;;;;;;;3.65;2.22;;;;;;;-149.78;67.45;50025.56;5123888;27;20027;-69
2022/05/23 10:28:48;;;;;;;3.20;1.67;;;;;;;-149.78;61.13;50056.84;5114136;27;20070;-69
2022/05/23 10:31:20;;;;;;;2.63;1.60;;;;;;;-149.78;59.20;49988.41;5135705;27;20114;-69
2022/05/23 10:33:48;;;;;;;;;;;;;;;-149.78;59.97;50033.38;5117940;27;20031;-69
2022/05/23 10:36:23;;;;;;;1.73;1.50;;;;;;;-149.78;61.41;49996.22;5135620;27;19915;-69
2022/05/23 10:45:06;;;;;;;3.88;1.85;;;;;;;-149.78;59.23;50013.81;5120865;27;20072;-69
2022/05/23 10:47:51;;;;;;;5.20;2.08;;;;;;;-149.78;59.61;50017.72;5074509;27;20132;-69
2022/05/23 10:50:23;;;;;;;4.50;1.90;;;;;;;-149.78;57.40;50037.28;5120845;27;20023;-69
2022/05/23 10:52:53;;;;;;;2.83;1.65;;;;;;;-149.78;60.17;50013.81;5119098;27;20514;-69
2022/05/23 10:55:27;;;;;;;3.80;1.97;;;;;;;-149.78;59.37;50027.50;5113423;27;20391;-69
2022/05/23 10:58:02;;;;;;;6.22;1.85;;;;;;;-149.78;59.07;50015.78;5095402;27;20040;-69
2022/05/23 11:01:00;;;;;;;4.57;2.17;;;;;;;-149.78;57.74;50000.13;5116080;27;20026;-69
2022/05/23 11:03:31;;;;;;;4.00;1.80;;;;;;;-149.78;57.72;50056.84;5059018;27;20394;-69
2022/05/23 11:06:30;;;;;;;2.92;2.30;;;;;;;-149.78;58.28;50056.84;5133988;27;20530;-69
2022/05/23 11:09:05;;;;;;;4.63;2.53;;;;;;;-149.78;60.87;50002.09;5116596;27;20383;-69
2022/05/23 11:11:51;;;;;;;3.67;2.50;;;;;;;-149.78;59.80;50035.34;5134589;27;20039;-69
2022/05/23 11:14:22;;;;;;;2.97;2.15;;;;;;;-149.78;62.21;50009.91;5116480;27;20031;-69
2022/05/23 11:17:06;;;;;;;10.20;2.72;;;;;;;-149.78;62.16;50058.78;5134748;27;20027;-69
2022/05/23 11:19:54;;;;;;;6.88;3.35;;;;;;;-149.78;57.27;50037.28;5116768;27;20084;-69
2022/05/23 11:22:28;;;;;;;7.07;3.28;;;;;;;-149.78;56.61;50009.91;5116441;27;20105;-69
2022/05/23 11:25:06;;;;;;;6.03;3.03;;;;;;;-149.78;56.68;50070.53;5134633;27;20035;-69
2022/05/23 11:33:47;;;;;;;8.93;4.63;;;;;;;-149.78;58.65;50029.47;5134340;27;20131;-70
2022/05/23 11:36:23;;;;;;;8.88;4.13;;;;;;;-149.78;59.14;50029.47;5133978;27;20172;-69
2022/05/23 11:38:50;;;;;;;7.95;4.03;;;;;;;-149.78;64.33;50049.03;5106246;28;20111;-70
2022/05/23 11:41:41;;;;;;;7.90;2.78;;;;;;;-149.78;65.64;50045.09;5112426;28;20039;-69
2022/05/23 11:44:50;;;;;;;8.48;3.13;;;;;;;-149.78;70.13;50064.66;5112213;28;20490;-69
2022/05/23 11:47:25;;;;;;;6.32;3.00;;;;;;;-149.78;72.31;50099.88;5113696;28;20028;-69
2022/05/23 11:50:00;;;;;;;5.13;3.03;;;;;;;-149.78;77.66;50103.78;5095633;28;20040;-69
2022/05/23 11:52:33;;;;;;;6.93;2.85;;;;;;;-149.78;74.44;50099.88;5113775;28;20031;-69
2022/05/23 11:54:58;;;;;;;10.57;3.10;;;;;;;-149.78;74.18;50068.56;5113685;28;20123;-69
2022/05/23 11:57:37;;;;;;;8.00;3.17;;;;;;;-149.78;71.75;50084.22;5113214;28;20059;-71
2022/05/23 12:00:07;;;;;;;8.27;3.33;;;;;;;-149.78;70.45;50033.38;5127069;27;20040;-69
2022/05/23 12:02:40;;;;;;;11.75;3.92;;;;;;;-149.78;68.98;50049.03;5115966;28;20532;-68
2022/05/23 12:05:12;;;;;;;7.95;3.63;;;;;;;-149.78;70.37;50033.38;5113443;28;20051;-69
2022/05/23 12:07:37;;;;;;;10.32;3.40;;;;;;;-149.78;64.88;50037.28;5113633;28;20031;-68
2022/05/23 12:10:28;;;;;;;7.20;3.83;;;;;;;-149.78;63.66;49994.25;5113310;28;20081;-68
2022/05/23 12:13:18;;;;;;;7.85;3.72;;;;;;;-149.78;66.49;50041.19;5128331;28;20424;-70
2022/05/23 12:15:44;;;;;;;5.40;3.80;;;;;;;-149.78;69.22;50037.28;5134050;27;20034;-69
2022/05/23 12:18:13;;;;;;;4.75;3.67;;;;;;;-149.78;64.30;49990.34;5138243;27;20043;-68
2022/05/23 12:20:45;;;;;;;6.72;3.40;;;;;;;-149.78;64.18;50039.25;5138154;27;20034;-69
2022/05/23 12:23:34;;;;;;;11.63;3.70;;;;;;;-149.78;69.49;50047.06;5125164;27;20042;-68